createdAt,value
2023-05-10T00:02:09.022Z,6.70
2023-05-10T00:04:37.937Z,6.63
2023-05-10T00:07:07.368Z,6.10
2023-05-10T00:09:39.217Z,6.13
2023-05-10T00:12:08.419Z,6.53
2023-05-10T00:14:38.350Z,5.47
2023-05-10T00:17:10.169Z,6.10
2023-05-10T00:19:39.448Z,6.10
2023-05-10T00:22:08.793Z,6.70
2023-05-10T00:24:37.723Z,5.83
2023-05-10T00:27:06.656Z,5.20
2023-05-10T00:29:37.901Z,5.55
2023-05-10T00:32:07.103Z,5.97
2023-05-10T00:34:36.194Z,6.30
2023-05-10T00:37:05.677Z,6.23
2023-05-10T00:39:38.441Z,5.60
2023-05-10T00:42:07.828Z,5.37
2023-05-10T00:44:36.823Z,5.27
2023-05-10T00:47:06.248Z,5.10
2023-05-10T00:49:36.140Z,5.00
2023-05-10T00:52:05.429Z,5.30
2023-05-10T00:54:36.270Z,4.80
2023-05-10T00:57:05.576Z,5.23
2023-05-10T00:59:37.289Z,5.33
2023-05-10T01:02:06.762Z,4.80
2023-05-10T01:04:37.629Z,4.37
2023-05-10T01:07:09.224Z,4.90
2023-05-10T01:09:38.204Z,4.57
2023-05-10T01:12:10.604Z,4.60
2023-05-10T01:14:40.021Z,4.97
2023-05-10T01:17:11.482Z,4.30
2023-05-10T01:19:40.832Z,4.70
2023-05-10T01:22:27.687Z,4.37
2023-05-10T01:25:20.511Z,4.17
2023-05-10T01:28:36.029Z,4.67
2023-05-10T01:31:28.759Z,4.45
2023-05-10T01:34:08.915Z,4.70
2023-05-10T01:36:44.535Z,4.93
2023-05-10T01:39:22.133Z,4.83
2023-05-10T01:41:56.786Z,4.47
2023-05-10T01:44:36.433Z,5.07
2023-05-10T01:47:10.619Z,4.57
2023-05-10T01:49:44.443Z,5.07
2023-05-10T01:52:16.712Z,4.95
2023-05-10T01:54:56.927Z,4.60
2023-05-10T01:57:41.152Z,5.40
2023-05-10T02:00:14.483Z,5.63
2023-05-10T02:02:47.611Z,5.00
2023-05-10T02:05:18.771Z,5.63
2023-05-10T02:07:48.710Z,5.70
2023-05-10T02:10:21.614Z,5.00
2023-05-10T02:12:52.008Z,5.37
2023-05-10T02:15:23.835Z,5.00
2023-05-10T02:17:58.522Z,5.43
2023-05-10T02:20:28.064Z,5.00
2023-05-10T02:22:58.585Z,4.63
2023-05-10T02:25:32.467Z,5.00
2023-05-10T02:28:05.528Z,5.00
2023-05-10T02:30:36.053Z,6.00
2023-05-10T02:33:06.880Z,4.63
2023-05-10T02:35:39.521Z,4.80
2023-05-10T02:38:10.165Z,4.77
2023-05-10T02:40:41.766Z,4.20
2023-05-10T02:43:15.662Z,4.60
2023-05-10T02:45:47.666Z,5.20
2023-05-10T02:48:17.968Z,4.70
2023-05-10T02:50:51.755Z,5.00
2023-05-10T02:53:30.246Z,5.40
2023-05-10T02:56:10.348Z,5.07
2023-05-10T02:58:39.517Z,4.73
2023-05-10T03:01:09.543Z,4.97
2023-05-10T03:03:39.233Z,5.47
2023-05-10T03:06:11.817Z,5.00
2023-05-10T03:08:40.937Z,5.17
2023-05-10T03:11:40.834Z,5.17
2023-05-10T03:14:30.582Z,5.17
2023-05-10T03:17:08.604Z,5.67
2023-05-10T03:19:44.850Z,5.47
2023-05-10T03:22:21.850Z,5.60
2023-05-10T03:24:52.948Z,5.07
2023-05-10T03:27:24.062Z,5.37
2023-05-10T03:29:58.063Z,5.60
2023-05-10T03:32:33.041Z,4.90
2023-05-10T03:35:09.319Z,5.17
2023-05-10T03:37:38.860Z,4.73
2023-05-10T03:40:12.905Z,5.33
2023-05-10T03:42:43.613Z,5.40
2023-05-10T03:45:12.768Z,5.70
2023-05-10T03:47:43.857Z,5.70
2023-05-10T03:50:13.009Z,5.50
2023-05-10T03:52:42.025Z,5.40
2023-05-10T03:55:11.102Z,4.83
2023-05-10T03:57:40.445Z,5.67
2023-05-10T04:00:17.439Z,5.60
2023-05-10T04:02:49.536Z,5.40
2023-05-10T04:05:22.023Z,5.10
2023-05-10T04:07:54.014Z,5.27
2023-05-10T04:10:24.512Z,6.10
2023-05-10T04:12:53.547Z,4.90
2023-05-10T04:15:22.803Z,5.20
2023-05-10T04:17:52.130Z,4.55
2023-05-10T04:20:21.351Z,5.07
2023-05-10T04:22:50.144Z,5.10
2023-05-10T04:25:19.087Z,6.27
2023-05-10T04:27:53.481Z,5.10
2023-05-10T04:30:22.644Z,4.70
2023-05-10T04:32:51.729Z,5.40
2023-05-10T04:35:27.585Z,4.53
2023-05-10T04:37:57.032Z,8.13
2023-05-10T04:40:26.837Z,29.85
2023-05-10T04:42:58.651Z,8.70
2023-05-10T04:45:28.036Z,5.43
2023-05-10T04:47:56.964Z,4.97
2023-05-10T04:50:26.021Z,5.17
2023-05-10T04:52:54.962Z,5.93
2023-05-10T04:55:23.876Z,6.10
2023-05-10T04:57:52.639Z,4.83
2023-05-10T05:00:22.539Z,4.87
2023-05-10T05:02:52.144Z,3.90
2023-05-10T05:05:21.324Z,4.30
2023-05-10T05:07:51.783Z,4.53
2023-05-10T05:10:20.836Z,5.77
2023-05-10T05:12:49.985Z,4.43
2023-05-10T05:15:19.104Z,4.17
2023-05-10T05:17:48.624Z,4.30
2023-05-10T05:20:20.666Z,3.87
2023-05-10T05:22:49.970Z,4.50
2023-05-10T05:25:19.424Z,4.43
2023-05-10T05:27:48.256Z,3.97
2023-05-10T05:30:18.889Z,4.37
2023-05-10T05:32:47.886Z,4.20
2023-05-10T05:35:18.231Z,4.20
2023-05-10T05:37:47.204Z,4.70
2023-05-10T05:40:16.351Z,4.83
2023-05-10T05:42:54.387Z,4.10
2023-05-10T05:45:23.439Z,3.43
2023-05-10T05:47:52.619Z,4.03
2023-05-10T05:50:21.459Z,4.27
2023-05-10T05:52:52.946Z,3.37
2023-05-10T05:55:26.419Z,3.63
2023-05-10T05:57:55.355Z,3.97
2023-05-10T06:00:24.912Z,3.03
2023-05-10T06:02:53.998Z,3.83
2023-05-10T06:05:22.846Z,4.10
2023-05-10T06:07:52.685Z,3.57
2023-05-10T06:10:25.924Z,3.40
2023-05-10T06:12:54.926Z,4.03
2023-05-10T06:15:24.386Z,3.70
2023-05-10T06:17:53.612Z,3.33
2023-05-10T06:20:32.369Z,3.27
2023-05-10T06:23:01.490Z,3.73
2023-05-10T06:25:30.502Z,3.43
2023-05-10T06:28:02.580Z,3.20
2023-05-10T06:30:32.493Z,3.00
2023-05-10T06:33:02.601Z,3.70
2023-05-10T06:35:32.368Z,2.90
2023-05-10T06:38:01.503Z,3.57
2023-05-10T06:40:30.861Z,2.80
2023-05-10T06:43:00.062Z,2.63
2023-05-10T06:45:29.221Z,2.87
2023-05-10T06:48:01.964Z,3.20
2023-05-10T06:50:31.400Z,3.47
2023-05-10T06:53:03.319Z,2.90
2023-05-10T06:55:32.692Z,2.93
2023-05-10T06:58:02.478Z,2.80
2023-05-10T07:00:31.414Z,3.23
2023-05-10T07:03:00.605Z,2.43
2023-05-10T07:05:29.882Z,3.23
2023-05-10T07:07:59.102Z,2.50
2023-05-10T07:10:28.000Z,2.33
2023-05-10T07:12:57.721Z,2.90
2023-05-10T07:15:26.963Z,2.30
2023-05-10T07:17:59.521Z,2.53
2023-05-10T07:20:28.840Z,2.40
2023-05-10T07:22:57.628Z,2.03
2023-05-10T07:25:28.993Z,2.10
2023-05-10T07:27:57.883Z,2.53
2023-05-10T07:30:26.854Z,2.07
2023-05-10T07:32:55.970Z,2.17
2023-05-10T07:35:24.999Z,2.17
2023-05-10T07:37:54.043Z,2.17
2023-05-10T07:40:23.366Z,2.47
2023-05-10T07:42:52.326Z,1.60
2023-05-10T07:45:21.245Z,2.20
2023-05-10T07:47:50.198Z,2.00
2023-05-10T07:50:19.848Z,2.00
2023-05-10T07:52:48.769Z,1.57
2023-05-10T07:55:19.123Z,1.90
2023-05-10T07:57:48.118Z,2.20
2023-05-10T08:00:20.337Z,2.17
2023-05-10T08:02:49.490Z,2.00
2023-05-10T08:05:18.727Z,2.17
2023-05-10T08:07:47.926Z,1.80
2023-05-10T08:10:17.307Z,2.30
2023-05-10T08:12:46.088Z,1.97
2023-05-10T08:15:15.274Z,2.30
2023-05-10T08:17:44.554Z,2.10
2023-05-10T08:20:17.175Z,1.97
2023-05-10T08:22:47.038Z,1.87
2023-05-10T08:25:16.555Z,2.20
2023-05-10T08:27:47.082Z,2.10
2023-05-10T08:30:16.032Z,2.37
2023-05-10T08:32:45.028Z,2.23
2023-05-10T08:35:14.084Z,1.87
2023-05-10T08:37:43.402Z,2.10
2023-05-10T08:40:14.658Z,2.00
2023-05-10T08:42:52.860Z,2.00
2023-05-10T08:45:23.925Z,2.50
2023-05-10T08:47:54.232Z,2.30
2023-05-10T08:50:24.036Z,2.67
2023-05-10T08:52:56.677Z,2.73
2023-05-10T08:55:26.024Z,1.93
2023-05-10T08:57:55.626Z,2.10
2023-05-10T09:00:25.349Z,2.10
2023-05-10T09:02:54.510Z,2.00
2023-05-10T09:05:23.524Z,2.00
2023-05-10T09:07:52.670Z,2.10
2023-05-10T09:10:22.741Z,2.27
2023-05-10T09:12:52.157Z,2.00
2023-05-10T09:15:21.332Z,2.17
2023-05-10T09:17:51.812Z,2.00
2023-05-10T09:20:20.928Z,2.60
2023-05-10T09:22:50.198Z,2.33
2023-05-10T09:25:19.402Z,2.20
2023-05-10T09:27:49.628Z,2.30
2023-05-10T09:30:26.932Z,2.10
2023-05-10T09:32:57.390Z,2.20
2023-05-10T09:35:29.673Z,2.20
2023-05-10T09:38:00.189Z,2.70
2023-05-10T09:40:30.779Z,2.53
2023-05-10T09:43:01.552Z,2.37
2023-05-10T09:45:32.955Z,2.30
2023-05-10T09:48:04.574Z,2.13
2023-05-10T09:50:34.514Z,2.33
2023-05-10T09:53:04.160Z,2.03
2023-05-10T09:55:42.182Z,2.23
2023-05-10T09:58:12.016Z,2.07
2023-05-10T10:00:42.089Z,2.00
2023-05-10T10:03:16.779Z,2.00
2023-05-10T10:05:47.167Z,2.40
2023-05-10T10:08:17.164Z,2.00
2023-05-10T10:10:47.226Z,2.40
2023-05-10T10:13:17.670Z,2.23
2023-05-10T10:15:48.780Z,2.73
2023-05-10T10:18:18.783Z,2.10
2023-05-10T10:20:48.067Z,1.90
2023-05-10T10:23:17.713Z,2.10
2023-05-10T10:25:49.421Z,2.00
2023-05-10T10:28:32.047Z,2.00
2023-05-10T10:31:14.835Z,2.10
2023-05-10T10:33:57.922Z,2.10
2023-05-10T10:36:27.977Z,2.12
2023-05-10T10:39:01.645Z,2.10
2023-05-10T10:41:33.405Z,1.77
2023-05-10T10:44:39.371Z,2.00
2023-05-10T10:47:09.857Z,2.30
2023-05-10T10:49:49.991Z,2.10
2023-05-10T10:52:28.611Z,2.37
2023-05-10T10:55:02.405Z,1.80
2023-05-10T10:57:38.349Z,2.20
2023-05-10T11:00:35.304Z,2.23
2023-05-10T11:03:07.604Z,2.10
2023-05-10T11:05:44.357Z,2.40
2023-05-10T11:08:26.680Z,2.70
2023-05-10T11:11:10.431Z,2.30
2023-05-10T11:13:43.978Z,2.30
2023-05-10T11:18:57.621Z,2.50
2023-05-10T11:21:27.098Z,2.20
2023-05-10T11:23:57.833Z,2.10
2023-05-10T11:26:32.719Z,2.13
2023-05-10T11:29:05.494Z,2.00
2023-05-10T11:31:42.954Z,1.63
2023-05-10T11:34:13.159Z,2.07
2023-05-10T11:36:41.918Z,2.10
2023-05-10T11:39:11.935Z,2.30
2023-05-10T11:41:42.955Z,2.20
2023-05-10T11:44:12.482Z,1.90
2023-05-10T11:46:41.291Z,2.10
2023-05-10T11:49:11.067Z,2.40
2023-05-10T11:51:40.043Z,2.13
2023-05-10T11:54:11.741Z,2.07
2023-05-10T11:56:41.335Z,1.83
2023-05-10T11:59:10.291Z,1.80
2023-05-10T12:01:39.428Z,2.00
2023-05-10T12:04:09.054Z,2.00
2023-05-10T12:06:41.914Z,2.10
2023-05-10T12:09:10.820Z,2.00
2023-05-10T12:11:43.503Z,2.37
2023-05-10T12:16:42.211Z,2.10
2023-05-10T12:19:11.630Z,1.83
2023-05-10T12:21:41.912Z,2.10
2023-05-10T12:24:11.007Z,2.33
2023-05-10T12:29:31.153Z,2.20
2023-05-10T12:32:00.980Z,1.90
2023-05-10T12:34:33.281Z,2.07
2023-05-10T12:37:05.832Z,2.13
2023-05-10T12:39:46.486Z,2.17
2023-05-10T12:42:15.296Z,2.37
2023-05-10T12:44:44.384Z,2.63
2023-05-10T12:47:13.453Z,2.17
2023-05-10T12:49:42.509Z,2.07
2023-05-10T12:52:11.287Z,2.20
2023-05-10T12:54:40.031Z,2.30
2023-05-10T12:57:08.902Z,2.73
2023-05-10T12:59:38.474Z,2.50
2023-05-10T13:02:07.976Z,2.50
2023-05-10T13:04:40.090Z,1.90
2023-05-10T13:07:09.477Z,2.17
2023-05-10T13:09:39.018Z,2.70
2023-05-10T13:12:09.910Z,1.90
2023-05-10T13:14:41.216Z,2.17
2023-05-10T13:17:10.361Z,1.73
2023-05-10T13:19:39.421Z,1.93
2023-05-10T13:22:09.681Z,2.13
2023-05-10T13:24:40.561Z,1.77
2023-05-10T13:27:09.819Z,1.90
2023-05-10T13:29:41.748Z,1.73
2023-05-10T13:32:12.214Z,2.37
2023-05-10T13:34:41.326Z,2.27
2023-05-10T13:37:10.349Z,2.90
2023-05-10T13:39:40.241Z,1.90
2023-05-10T13:42:09.308Z,1.93
2023-05-10T13:44:39.242Z,1.97
2023-05-10T13:47:08.944Z,2.17
2023-05-10T13:49:38.329Z,1.90
2023-05-10T13:52:07.700Z,1.87
2023-05-10T13:54:38.536Z,2.10
2023-05-10T13:57:07.693Z,1.90
2023-05-10T13:59:39.209Z,1.87
2023-05-10T14:02:09.020Z,2.20
2023-05-10T14:04:38.122Z,2.10
2023-05-10T14:07:07.473Z,2.10
2023-05-10T14:09:38.115Z,2.17
2023-05-10T14:12:07.647Z,1.97
2023-05-10T14:14:37.876Z,1.70
2023-05-10T14:17:10.738Z,1.97
2023-05-10T14:19:41.096Z,2.27
2023-05-10T14:22:10.307Z,1.90
2023-05-10T14:24:39.827Z,2.20
2023-05-10T14:27:09.137Z,2.00
2023-05-10T14:29:38.289Z,1.90
2023-05-10T14:32:08.986Z,2.00
2023-05-10T14:34:38.187Z,1.83
2023-05-10T14:37:11.588Z,1.93
2023-05-10T14:39:40.828Z,1.87
2023-05-10T14:42:10.395Z,2.13
2023-05-10T14:44:40.014Z,2.17
2023-05-10T14:47:11.205Z,2.20
2023-05-10T14:49:41.595Z,2.30
2023-05-10T14:52:10.594Z,2.23
2023-05-10T14:54:39.722Z,2.03
2023-05-10T14:57:08.718Z,2.10
2023-05-10T14:59:38.781Z,2.80
2023-05-10T15:02:10.225Z,2.50
2023-05-10T15:04:43.449Z,2.10
2023-05-10T15:07:15.336Z,2.02
2023-05-10T15:09:44.395Z,1.80
2023-05-10T15:12:13.826Z,2.20
2023-05-10T15:14:42.799Z,1.90
2023-05-10T15:17:12.153Z,1.95
2023-05-10T15:19:41.441Z,2.53
2023-05-10T15:22:12.822Z,2.27
2023-05-10T15:24:42.409Z,1.80
2023-05-10T15:27:11.456Z,2.13
2023-05-10T15:29:43.504Z,2.20
2023-05-10T15:32:12.625Z,2.07
2023-05-10T15:34:41.855Z,1.93
2023-05-10T15:37:11.061Z,1.80
2023-05-10T15:39:40.013Z,1.70
2023-05-10T15:42:09.085Z,2.00
2023-05-10T15:44:39.086Z,2.00
2023-05-10T15:47:08.194Z,1.90
2023-05-10T15:49:41.226Z,2.30
2023-05-10T15:52:11.957Z,1.93
2023-05-10T15:54:41.385Z,2.30
2023-05-10T15:57:10.472Z,2.00
2023-05-10T15:59:39.715Z,2.03
2023-05-10T16:02:12.006Z,1.93
2023-05-10T16:04:41.302Z,1.83
2023-05-10T16:07:10.428Z,2.07
2023-05-10T16:09:41.215Z,2.37
2023-05-10T16:12:10.627Z,2.20
2023-05-10T16:14:47.105Z,2.47
2023-05-10T16:17:16.968Z,2.10
2023-05-10T16:19:47.200Z,2.03
2023-05-10T16:22:16.293Z,2.23
2023-05-10T16:24:45.629Z,2.33
2023-05-10T16:27:14.883Z,1.90
2023-05-10T16:29:43.942Z,2.17
2023-05-10T16:32:13.027Z,2.27
2023-05-10T16:34:41.981Z,1.90
2023-05-10T16:37:11.562Z,2.13
2023-05-10T16:39:40.783Z,1.70
2023-05-10T16:42:15.794Z,2.40
2023-05-10T16:44:45.641Z,1.90
2023-05-10T16:47:15.280Z,2.40
2023-05-10T16:49:44.455Z,1.90
2023-05-10T16:52:13.701Z,2.40
2023-05-10T16:54:42.877Z,1.80
2023-05-10T16:57:11.968Z,2.20
2023-05-10T16:59:41.139Z,1.80
2023-05-10T17:02:10.594Z,2.03
2023-05-10T17:04:39.947Z,1.80
2023-05-10T17:07:11.627Z,2.03
2023-05-10T17:09:42.747Z,1.70
2023-05-10T17:12:12.307Z,2.33
2023-05-10T17:14:41.549Z,2.10
2023-05-10T17:17:11.286Z,1.97
2023-05-10T17:19:44.321Z,2.13
2023-05-10T17:22:14.157Z,1.67
2023-05-10T17:24:43.336Z,2.03
2023-05-10T17:27:15.188Z,2.20
2023-05-10T17:29:45.803Z,2.00
2023-05-10T17:32:15.433Z,2.13
2023-05-10T17:34:44.615Z,1.90
2023-05-10T17:37:18.792Z,2.00
2023-05-10T17:39:47.895Z,2.10
2023-05-10T17:42:18.857Z,2.50
2023-05-10T17:44:48.153Z,3.70
2023-05-10T17:47:17.668Z,3.37
2023-05-10T17:49:47.144Z,3.10
2023-05-10T17:52:16.459Z,3.07
2023-05-10T17:54:45.594Z,3.37
2023-05-10T17:57:22.012Z,2.43
2023-05-10T17:59:52.363Z,2.40
2023-05-10T18:02:29.849Z,2.37
2023-05-10T18:05:06.194Z,2.10
2023-05-10T18:07:38.309Z,2.40
2023-05-10T18:10:09.278Z,2.03
2023-05-10T18:12:38.488Z,2.33
2023-05-10T18:15:14.156Z,2.20
2023-05-10T18:17:43.588Z,2.40
2023-05-10T18:20:13.588Z,2.33
2023-05-10T18:22:42.909Z,2.80
2023-05-10T18:25:13.804Z,2.73
2023-05-10T18:27:45.805Z,3.25
2023-05-10T18:30:18.690Z,3.00
2023-05-10T18:32:47.993Z,2.90
2023-05-10T18:35:17.045Z,2.67
2023-05-10T18:37:46.706Z,2.60
2023-05-10T18:40:17.285Z,2.40
2023-05-10T18:42:46.560Z,2.90
2023-05-10T18:45:16.805Z,2.40
2023-05-10T18:47:46.886Z,2.60
2023-05-10T18:50:17.046Z,2.53
2023-05-10T18:52:50.967Z,2.63
2023-05-10T18:55:20.670Z,2.37
2023-05-10T18:57:51.996Z,2.50
2023-05-10T19:00:22.789Z,2.40
2023-05-10T19:02:53.304Z,2.83
2023-05-10T19:05:29.137Z,2.37
2023-05-10T19:08:06.320Z,2.97
2023-05-10T19:10:38.013Z,2.70
2023-05-10T19:13:07.373Z,2.67
2023-05-10T19:15:37.959Z,3.03
2023-05-10T19:18:09.731Z,2.10
2023-05-10T19:20:40.845Z,2.60
2023-05-10T19:23:11.661Z,2.73
2023-05-10T19:25:47.007Z,3.03
2023-05-10T19:28:16.795Z,2.43
2023-05-10T19:30:46.819Z,3.00
2023-05-10T19:33:15.918Z,3.10
2023-05-10T19:35:45.387Z,3.07
2023-05-10T19:38:14.546Z,2.77
2023-05-10T19:40:43.831Z,3.00
2023-05-10T19:43:12.799Z,3.20
2023-05-10T19:45:41.500Z,3.00
2023-05-10T19:48:10.313Z,3.23
2023-05-10T19:50:39.264Z,3.90
2023-05-10T19:53:08.154Z,3.50
2023-05-10T19:55:37.680Z,3.83
2023-05-10T19:58:06.865Z,3.23
2023-05-10T20:00:37.367Z,4.13
2023-05-10T20:03:09.050Z,3.63
2023-05-10T20:05:38.475Z,3.60
2023-05-10T20:08:07.452Z,3.77
2023-05-10T20:10:38.512Z,4.20
2023-05-10T20:13:07.770Z,4.03
2023-05-10T20:15:37.086Z,4.13
2023-05-10T20:18:06.528Z,4.00
2023-05-10T20:20:37.149Z,4.37
2023-05-10T20:23:05.994Z,4.17
2023-05-10T20:25:38.411Z,4.00
2023-05-10T20:28:09.658Z,4.33
2023-05-10T20:30:38.932Z,3.23
2023-05-10T20:33:08.764Z,3.70
2023-05-10T20:35:37.673Z,3.50
2023-05-10T20:38:06.661Z,3.57
2023-05-10T20:40:36.809Z,3.37
2023-05-10T20:43:05.746Z,3.83
2023-05-10T20:45:37.368Z,3.40
2023-05-10T20:48:07.929Z,3.83
2023-05-10T20:50:37.736Z,3.60
2023-05-10T20:53:06.799Z,3.67
2023-05-10T20:55:36.565Z,3.60
2023-05-10T20:58:05.708Z,4.13
2023-05-10T21:00:37.134Z,4.20
2023-05-10T21:03:06.604Z,4.07
2023-05-10T21:05:37.991Z,3.80
2023-05-10T21:08:06.913Z,4.03
2023-05-10T21:10:36.516Z,4.73
2023-05-10T21:13:05.453Z,4.17
2023-05-10T21:15:35.202Z,4.27
2023-05-10T21:18:05.006Z,4.60
2023-05-10T21:20:33.994Z,3.50
2023-05-10T21:23:06.607Z,3.87
2023-05-10T21:25:37.122Z,3.83
2023-05-10T21:28:06.173Z,4.37
2023-05-10T21:30:37.651Z,3.87
2023-05-10T21:33:07.055Z,4.53
2023-05-10T21:35:42.086Z,3.60
2023-05-10T21:38:11.477Z,4.23
2023-05-10T21:40:40.583Z,4.30
2023-05-10T21:43:10.705Z,3.90
2023-05-10T21:45:40.250Z,4.10
2023-05-10T21:48:09.606Z,3.87
2023-05-10T21:50:38.669Z,3.80
2023-05-10T21:53:07.477Z,3.63
2023-05-10T21:55:38.473Z,3.70
2023-05-10T21:58:07.829Z,3.93
2023-05-10T22:00:38.007Z,3.50
2023-05-10T22:03:07.827Z,4.03
2023-05-10T22:05:38.599Z,3.77
2023-05-10T22:08:09.722Z,3.77
2023-05-10T22:10:38.671Z,4.30
2023-05-10T22:13:08.074Z,3.47
2023-05-10T22:15:39.994Z,4.30
2023-05-10T22:18:09.120Z,4.07
2023-05-10T22:20:39.152Z,3.40
2023-05-10T22:23:08.438Z,3.77
2023-05-10T22:25:38.878Z,3.53
2023-05-10T22:28:08.661Z,3.47
2023-05-10T22:30:41.332Z,3.20
